sensor_id;sensor_type;location;lat;lon;timestamp;pressure;altitude;pressure_sealevel;temperature;humidity
51245;BME280;37840;47.562;18.738;2023-01-08T00:01:10;99954.28;;;6.85;89.53
51245;BME280;37840;47.562;18.738;2023-01-08T00:03:37;99950.88;;;6.83;90.07
51245;BME280;37840;47.562;18.738;2023-01-08T00:06:04;99953.56;;;6.82;90.39
51245;BME280;37840;47.562;18.738;2023-01-08T00:08:31;99957.63;;;6.89;90.32
51245;BME280;37840;47.562;18.738;2023-01-08T00:10:58;99953.78;;;6.94;90.00
51245;BME280;37840;47.562;18.738;2023-01-08T00:13:25;99952.78;;;6.97;89.72
51245;BME280;37840;47.562;18.738;2023-01-08T00:15:51;99945.47;;;7.02;89.35
51245;BME280;37840;47.562;18.738;2023-01-08T00:18:17;99939.31;;;7.02;89.19
51245;BME280;37840;47.562;18.738;2023-01-08T00:20:44;99942.56;;;7.07;89.08
51245;BME280;37840;47.562;18.738;2023-01-08T00:23:15;99944.03;;;7.12;88.89
51245;BME280;37840;47.562;18.738;2023-01-08T00:25:41;99934.25;;;7.14;88.76
51245;BME280;37840;47.562;18.738;2023-01-08T00:28:07;99929.78;;;7.15;88.46
51245;BME280;37840;47.562;18.738;2023-01-08T00:30:35;99930.63;;;7.15;88.31
51245;BME280;37840;47.562;18.738;2023-01-08T00:33:01;99935.25;;;7.12;88.27
51245;BME280;37840;47.562;18.738;2023-01-08T00:35:27;99932.63;;;7.12;88.22
51245;BME280;37840;47.562;18.738;2023-01-08T00:37:53;99935.09;;;7.15;87.95
51245;BME280;37840;47.562;18.738;2023-01-08T00:40:19;99936.03;;;7.14;87.83
51245;BME280;37840;47.562;18.738;2023-01-08T00:42:44;99933.22;;;7.17;87.71
51245;BME280;37840;47.562;18.738;2023-01-08T00:45:10;99932.25;;;7.18;87.53
51245;BME280;37840;47.562;18.738;2023-01-08T00:47:36;99940.28;;;7.17;87.44
51245;BME280;37840;47.562;18.738;2023-01-08T00:50:02;99932.19;;;7.20;87.19
51245;BME280;37840;47.562;18.738;2023-01-08T00:52:28;99944.62;;;7.18;87.39
51245;BME280;37840;47.562;18.738;2023-01-08T00:54:54;99937.47;;;7.20;87.28
51245;BME280;37840;47.562;18.738;2023-01-08T00:57:20;99940.97;;;7.20;87.29
51245;BME280;37840;47.562;18.738;2023-01-08T00:59:46;99928.69;;;7.19;87.21
51245;BME280;37840;47.562;18.738;2023-01-08T01:02:13;99939.97;;;7.23;86.95
51245;BME280;37840;47.562;18.738;2023-01-08T01:04:39;99934.69;;;7.23;87.20
51245;BME280;37840;47.562;18.738;2023-01-08T01:07:05;99932.03;;;7.23;87.25
51245;BME280;37840;47.562;18.738;2023-01-08T01:09:31;99931.09;;;7.24;87.33
51245;BME280;37840;47.562;18.738;2023-01-08T01:11:57;99931.00;;;7.25;87.25
51245;BME280;37840;47.562;18.738;2023-01-08T01:14:23;99932.94;;;7.22;87.48
51245;BME280;37840;47.562;18.738;2023-01-08T01:16:49;99928.38;;;7.25;87.42
51245;BME280;37840;47.562;18.738;2023-01-08T01:19:16;99935.44;;;7.25;87.32
51245;BME280;37840;47.562;18.738;2023-01-08T01:21:43;99923.00;;;7.27;87.15
51245;BME280;37840;47.562;18.738;2023-01-08T01:24:10;99925.72;;;7.25;87.25
51245;BME280;37840;47.562;18.738;2023-01-08T01:26:37;99917.78;;;7.25;87.02
51245;BME280;37840;47.562;18.738;2023-01-08T01:29:04;99929.97;;;7.28;86.84
51245;BME280;37840;47.562;18.738;2023-01-08T01:31:30;99920.50;;;7.24;87.03
51245;BME280;37840;47.562;18.738;2023-01-08T01:33:57;99909.91;;;7.24;87.06
51245;BME280;37840;47.562;18.738;2023-01-08T01:36:23;99911.72;;;7.23;87.18
51245;BME280;37840;47.562;18.738;2023-01-08T01:38:51;99900.28;;;7.23;87.21
51245;BME280;37840;47.562;18.738;2023-01-08T01:41:41;99896.69;;;7.24;87.38
51245;BME280;37840;47.562;18.738;2023-01-08T01:44:43;99902.06;;;7.22;87.65
51245;BME280;37840;47.562;18.738;2023-01-08T01:49:51;99888.06;;;7.20;87.88
51245;BME280;37840;47.562;18.738;2023-01-08T01:52:20;99883.72;;;7.19;87.76
51245;BME280;37840;47.562;18.738;2023-01-08T01:54:49;99881.84;;;7.21;87.60
51245;BME280;37840;47.562;18.738;2023-01-08T01:57:15;99879.28;;;7.20;87.49
51245;BME280;37840;47.562;18.738;2023-01-08T01:59:41;99874.19;;;7.17;87.57
51245;BME280;37840;47.562;18.738;2023-01-08T02:02:08;99865.22;;;7.19;87.25
51245;BME280;37840;47.562;18.738;2023-01-08T02:04:34;99866.13;;;7.18;87.09
51245;BME280;37840;47.562;18.738;2023-01-08T02:07:12;99860.09;;;7.16;87.19
51245;BME280;37840;47.562;18.738;2023-01-08T02:14:46;99864.72;;;7.12;87.52
51245;BME280;37840;47.562;18.738;2023-01-08T02:17:22;99859.41;;;7.12;87.40
51245;BME280;37840;47.562;18.738;2023-01-08T02:19:52;99856.06;;;7.09;87.63
51245;BME280;37840;47.562;18.738;2023-01-08T02:27:44;99836.28;;;6.84;89.10
51245;BME280;37840;47.562;18.738;2023-01-08T02:30:13;99837.28;;;6.82;89.41
51245;BME280;37840;47.562;18.738;2023-01-08T02:32:40;99841.66;;;6.83;89.62
51245;BME280;37840;47.562;18.738;2023-01-08T02:35:08;99839.84;;;6.83;89.60
51245;BME280;37840;47.562;18.738;2023-01-08T02:37:37;99838.66;;;6.89;89.49
51245;BME280;37840;47.562;18.738;2023-01-08T02:40:13;99833.22;;;6.92;89.29
51245;BME280;37840;47.562;18.738;2023-01-08T02:45:44;99834.41;;;7.02;88.73
51245;BME280;37840;47.562;18.738;2023-01-08T02:48:29;99834.22;;;7.05;88.45
51245;BME280;37840;47.562;18.738;2023-01-08T02:51:20;99833.31;;;7.06;88.37
51245;BME280;37840;47.562;18.738;2023-01-08T02:53:57;99834.06;;;7.08;88.33
51245;BME280;37840;47.562;18.738;2023-01-08T02:56:27;99828.72;;;7.10;88.33
51245;BME280;37840;47.562;18.738;2023-01-08T02:58:54;99826.91;;;7.10;88.10
51245;BME280;37840;47.562;18.738;2023-01-08T03:01:23;99827.84;;;7.09;88.27
51245;BME280;37840;47.562;18.738;2023-01-08T03:03:59;99825.13;;;7.11;88.15
51245;BME280;37840;47.562;18.738;2023-01-08T03:06:28;99817.94;;;7.13;87.96
51245;BME280;37840;47.562;18.738;2023-01-08T03:08:55;99820.78;;;7.10;88.16
51245;BME280;37840;47.562;18.738;2023-01-08T03:11:23;99822.66;;;7.08;88.33
51245;BME280;37840;47.562;18.738;2023-01-08T03:13:59;99821.62;;;7.10;88.13
51245;BME280;37840;47.562;18.738;2023-01-08T03:16:35;99822.72;;;7.06;88.32
51245;BME280;37840;47.562;18.738;2023-01-08T03:19:10;99821.88;;;7.06;88.38
51245;BME280;37840;47.562;18.738;2023-01-08T03:21:38;99815.56;;;7.08;88.28
51245;BME280;37840;47.562;18.738;2023-01-08T03:24:05;99816.34;;;7.10;88.29
51245;BME280;37840;47.562;18.738;2023-01-08T03:26:35;99818.78;;;7.13;88.03
51245;BME280;37840;47.562;18.738;2023-01-08T03:29:03;99817.09;;;7.12;88.04
51245;BME280;37840;47.562;18.738;2023-01-08T03:31:32;99822.97;;;7.18;87.68
51245;BME280;37840;47.562;18.738;2023-01-08T03:34:01;99815.22;;;7.14;87.72
51245;BME280;37840;47.562;18.738;2023-01-08T03:36:28;99815.56;;;7.08;88.02
51245;BME280;37840;47.562;18.738;2023-01-08T03:39:03;99801.66;;;7.05;88.28
51245;BME280;37840;47.562;18.738;2023-01-08T03:41:34;99798.25;;;7.03;88.59
51245;BME280;37840;47.562;18.738;2023-01-08T03:44:01;99795.00;;;6.98;88.92
51245;BME280;37840;47.562;18.738;2023-01-08T03:46:31;99794.94;;;6.99;89.03
51245;BME280;37840;47.562;18.738;2023-01-08T03:48:58;99802.19;;;6.96;89.12
51245;BME280;37840;47.562;18.738;2023-01-08T03:51:25;99803.19;;;6.93;89.07
51245;BME280;37840;47.562;18.738;2023-01-08T03:53:54;99802.50;;;6.89;89.40
51245;BME280;37840;47.562;18.738;2023-01-08T03:56:21;99803.34;;;6.90;89.38
51245;BME280;37840;47.562;18.738;2023-01-08T03:58:47;99799.94;;;6.88;89.52
51245;BME280;37840;47.562;18.738;2023-01-08T04:01:13;99799.53;;;6.96;89.02
51245;BME280;37840;47.562;18.738;2023-01-08T04:03:39;99800.22;;;6.99;88.70
51245;BME280;37840;47.562;18.738;2023-01-08T04:06:05;99802.19;;;6.96;88.76
51245;BME280;37840;47.562;18.738;2023-01-08T04:08:31;99798.56;;;6.97;88.61
51245;BME280;37840;47.562;18.738;2023-01-08T04:10:57;99796.03;;;6.95;88.74
51245;BME280;37840;47.562;18.738;2023-01-08T04:13:23;99790.97;;;6.90;89.00
51245;BME280;37840;47.562;18.738;2023-01-08T04:15:49;99796.28;;;6.90;89.11
51245;BME280;37840;47.562;18.738;2023-01-08T04:18:16;99790.97;;;6.90;89.11
51245;BME280;37840;47.562;18.738;2023-01-08T04:20:46;99794.41;;;6.92;88.80
51245;BME280;37840;47.562;18.738;2023-01-08T04:23:12;99784.69;;;6.93;88.77
51245;BME280;37840;47.562;18.738;2023-01-08T04:25:39;99792.78;;;6.90;89.14
51245;BME280;37840;47.562;18.738;2023-01-08T04:28:05;99795.50;;;6.88;89.29
51245;BME280;37840;47.562;18.738;2023-01-08T04:30:31;99795.34;;;6.91;89.10
51245;BME280;37840;47.562;18.738;2023-01-08T04:32:56;99802.25;;;6.94;88.84
51245;BME280;37840;47.562;18.738;2023-01-08T04:35:22;99796.81;;;6.97;88.68
51245;BME280;37840;47.562;18.738;2023-01-08T04:37:48;99791.34;;;7.00;88.52
51245;BME280;37840;47.562;18.738;2023-01-08T04:40:14;99796.38;;;7.05;88.21
51245;BME280;37840;47.562;18.738;2023-01-08T04:42:40;99796.28;;;7.06;88.02
51245;BME280;37840;47.562;18.738;2023-01-08T04:45:07;99803.53;;;7.03;88.05
51245;BME280;37840;47.562;18.738;2023-01-08T04:47:33;99802.75;;;7.01;88.17
51245;BME280;37840;47.562;18.738;2023-01-08T04:49:59;99804.31;;;7.05;88.06
51245;BME280;37840;47.562;18.738;2023-01-08T04:52:27;99795.59;;;7.03;87.73
51245;BME280;37840;47.562;18.738;2023-01-08T04:54:52;99798.31;;;7.01;87.71
51245;BME280;37840;47.562;18.738;2023-01-08T04:57:18;99788.00;;;6.97;88.02
51245;BME280;37840;47.562;18.738;2023-01-08T04:59:44;99787.34;;;6.93;88.06
51245;BME280;37840;47.562;18.738;2023-01-08T05:02:10;99797.22;;;6.89;88.43
51245;BME280;37840;47.562;18.738;2023-01-08T05:04:36;99796.63;;;6.84;88.67
51245;BME280;37840;47.562;18.738;2023-01-08T05:07:03;99791.50;;;6.81;88.92
51245;BME280;37840;47.562;18.738;2023-01-08T05:09:29;99784.16;;;6.86;88.96
51245;BME280;37840;47.562;18.738;2023-01-08T05:11:55;99779.06;;;6.83;88.94
51245;BME280;37840;47.562;18.738;2023-01-08T05:14:21;99787.84;;;6.84;89.09
51245;BME280;37840;47.562;18.738;2023-01-08T05:16:47;99776.34;;;6.85;89.00
51245;BME280;37840;47.562;18.738;2023-01-08T05:19:12;99775.38;;;6.86;88.86
51245;BME280;37840;47.562;18.738;2023-01-08T05:21:38;99777.44;;;6.81;89.11
51245;BME280;37840;47.562;18.738;2023-01-08T05:24:04;99777.59;;;6.78;89.37
51245;BME280;37840;47.562;18.738;2023-01-08T05:26:31;99785.38;;;6.81;89.40
51245;BME280;37840;47.562;18.738;2023-01-08T05:28:57;99780.00;;;6.82;89.27
51245;BME280;37840;47.562;18.738;2023-01-08T05:31:23;99776.41;;;6.83;89.27
51245;BME280;37840;47.562;18.738;2023-01-08T05:33:49;99765.75;;;6.85;89.04
51245;BME280;37840;47.562;18.738;2023-01-08T05:36:16;99769.19;;;6.87;88.98
51245;BME280;37840;47.562;18.738;2023-01-08T05:38:42;99770.03;;;6.87;88.68
51245;BME280;37840;47.562;18.738;2023-01-08T05:41:08;99772.66;;;6.87;88.53
51245;BME280;37840;47.562;18.738;2023-01-08T05:43:35;99765.66;;;6.86;88.59
51245;BME280;37840;47.562;18.738;2023-01-08T05:46:02;99777.38;;;6.82;88.78
51245;BME280;37840;47.562;18.738;2023-01-08T05:48:29;99768.66;;;6.80;89.10
51245;BME280;37840;47.562;18.738;2023-01-08T05:50:55;99760.62;;;6.82;89.08
51245;BME280;37840;47.562;18.738;2023-01-08T05:53:21;99756.87;;;6.86;88.70
51245;BME280;37840;47.562;18.738;2023-01-08T05:55:47;99754.50;;;6.81;88.76
51245;BME280;37840;47.562;18.738;2023-01-08T05:58:13;99746.50;;;6.83;88.69
51245;BME280;37840;47.562;18.738;2023-01-08T06:00:39;99752.69;;;6.82;88.70
51245;BME280;37840;47.562;18.738;2023-01-08T06:03:05;99746.56;;;6.81;88.80
51245;BME280;37840;47.562;18.738;2023-01-08T06:05:31;99743.16;;;6.79;88.72
51245;BME280;37840;47.562;18.738;2023-01-08T06:07:58;99741.34;;;6.80;88.59
51245;BME280;37840;47.562;18.738;2023-01-08T06:10:24;99744.19;;;6.77;88.68
51245;BME280;37840;47.562;18.738;2023-01-08T06:12:50;99747.59;;;6.79;88.70
51245;BME280;37840;47.562;18.738;2023-01-08T06:15:16;99744.69;;;6.83;88.35
51245;BME280;37840;47.562;18.738;2023-01-08T06:17:43;99742.13;;;6.82;88.33
51245;BME280;37840;47.562;18.738;2023-01-08T06:20:09;99743.09;;;6.81;88.28
51245;BME280;37840;47.562;18.738;2023-01-08T06:22:35;99741.22;;;6.83;88.25
51245;BME280;37840;47.562;18.738;2023-01-08T06:25:02;99731.81;;;6.77;88.42
51245;BME280;37840;47.562;18.738;2023-01-08T06:27:28;99735.41;;;6.76;88.48
51245;BME280;37840;47.562;18.738;2023-01-08T06:29:54;99730.03;;;6.78;88.62
51245;BME280;37840;47.562;18.738;2023-01-08T06:32:20;99737.19;;;6.76;88.84
51245;BME280;37840;47.562;18.738;2023-01-08T06:34:46;99740.84;;;6.73;89.03
51245;BME280;37840;47.562;18.738;2023-01-08T06:37:12;99736.66;;;6.69;89.18
51245;BME280;37840;47.562;18.738;2023-01-08T06:39:38;99734.97;;;6.68;89.37
51245;BME280;37840;47.562;18.738;2023-01-08T06:42:04;99733.19;;;6.68;89.21
51245;BME280;37840;47.562;18.738;2023-01-08T06:44:30;99730.94;;;6.61;89.37
51245;BME280;37840;47.562;18.738;2023-01-08T06:46:56;99737.88;;;6.63;89.45
51245;BME280;37840;47.562;18.738;2023-01-08T06:49:22;99743.06;;;6.65;89.56
51245;BME280;37840;47.562;18.738;2023-01-08T06:51:48;99731.72;;;6.63;89.48
51245;BME280;37840;47.562;18.738;2023-01-08T06:54:14;99732.94;;;6.57;89.81
51245;BME280;37840;47.562;18.738;2023-01-08T06:56:40;99727.28;;;6.47;90.30
51245;BME280;37840;47.562;18.738;2023-01-08T06:59:05;99727.72;;;6.40;90.67
51245;BME280;37840;47.562;18.738;2023-01-08T07:01:31;99734.69;;;6.41;90.86
51245;BME280;37840;47.562;18.738;2023-01-08T07:03:57;99730.50;;;6.37;90.80
51245;BME280;37840;47.562;18.738;2023-01-08T07:06:23;99734.09;;;6.36;91.25
51245;BME280;37840;47.562;18.738;2023-01-08T07:08:49;99728.44;;;6.42;90.79
51245;BME280;37840;47.562;18.738;2023-01-08T07:11:16;99731.28;;;6.39;90.64
51245;BME280;37840;47.562;18.738;2023-01-08T07:13:42;99723.28;;;6.40;90.83
51245;BME280;37840;47.562;18.738;2023-01-08T07:16:10;99726.44;;;6.47;90.29
51245;BME280;37840;47.562;18.738;2023-01-08T07:18:37;99726.44;;;6.47;90.16
51245;BME280;37840;47.562;18.738;2023-01-08T07:21:05;99726.44;;;6.47;90.34
51245;BME280;37840;47.562;18.738;2023-01-08T07:23:32;99722.94;;;6.46;90.49
51245;BME280;37840;47.562;18.738;2023-01-08T07:26:02;99719.53;;;6.44;90.51
51245;BME280;37840;47.562;18.738;2023-01-08T07:28:29;99716.03;;;6.44;90.43
51245;BME280;37840;47.562;18.738;2023-01-08T07:30:56;99721.16;;;6.47;90.75
51245;BME280;37840;47.562;18.738;2023-01-08T07:33:22;99720.13;;;6.49;90.31
51245;BME280;37840;47.562;18.738;2023-01-08T07:35:54;99728.91;;;6.50;90.48
51245;BME280;37840;47.562;18.738;2023-01-08T07:38:21;99729.22;;;6.44;90.67
51245;BME280;37840;47.562;18.738;2023-01-08T07:40:47;99715.69;;;6.34;91.23
51245;BME280;37840;47.562;18.738;2023-01-08T07:43:14;99717.47;;;6.33;91.38
51245;BME280;37840;47.562;18.738;2023-01-08T07:45:40;99713.19;;;6.31;91.75
51245;BME280;37840;47.562;18.738;2023-01-08T07:48:06;99714.72;;;6.35;91.72
51245;BME280;37840;47.562;18.738;2023-01-08T07:50:36;99713.88;;;6.35;91.48
51245;BME280;37840;47.562;18.738;2023-01-08T07:53:03;99710.56;;;6.31;91.63
51245;BME280;37840;47.562;18.738;2023-01-08T07:55:29;99714.13;;;6.30;91.50
51245;BME280;37840;47.562;18.738;2023-01-08T07:57:56;99711.69;;;6.27;91.90
51245;BME280;37840;47.562;18.738;2023-01-08T08:00:22;99708.00;;;6.29;92.09
51245;BME280;37840;47.562;18.738;2023-01-08T08:02:48;99702.72;;;6.29;91.98
51245;BME280;37840;47.562;18.738;2023-01-08T08:05:14;99703.25;;;6.36;91.89
51245;BME280;37840;47.562;18.738;2023-01-08T08:07:39;99689.78;;;6.41;91.75
51245;BME280;37840;47.562;18.738;2023-01-08T08:10:06;99694.81;;;6.45;92.12
51245;BME280;37840;47.562;18.738;2023-01-08T08:12:32;99692.03;;;6.48;91.49
51245;BME280;37840;47.562;18.738;2023-01-08T08:14:58;99695.75;;;6.44;91.59
51245;BME280;37840;47.562;18.738;2023-01-08T08:17:23;99685.19;;;6.44;91.53
51245;BME280;37840;47.562;18.738;2023-01-08T08:19:51;99692.78;;;6.50;91.53
51245;BME280;37840;47.562;18.738;2023-01-08T08:22:17;99683.22;;;6.48;91.60
51245;BME280;37840;47.562;18.738;2023-01-08T08:24:43;99684.31;;;6.44;91.72
51245;BME280;37840;47.562;18.738;2023-01-08T08:27:09;99685.00;;;6.47;91.76
51245;BME280;37840;47.562;18.738;2023-01-08T08:29:35;99686.38;;;6.39;91.97
51245;BME280;37840;47.562;18.738;2023-01-08T08:32:01;99679.47;;;6.36;92.20
51245;BME280;37840;47.562;18.738;2023-01-08T08:34:26;99676.16;;;6.32;92.58
51245;BME280;37840;47.562;18.738;2023-01-08T08:36:52;99675.44;;;6.29;92.79
51245;BME280;37840;47.562;18.738;2023-01-08T08:39:18;99676.31;;;6.29;92.95
51245;BME280;37840;47.562;18.738;2023-01-08T08:41:44;99674.34;;;6.33;92.72
51245;BME280;37840;47.562;18.738;2023-01-08T08:44:10;99672.72;;;6.30;93.07
51245;BME280;37840;47.562;18.738;2023-01-08T08:46:36;99669.94;;;6.33;93.24
51245;BME280;37840;47.562;18.738;2023-01-08T08:49:02;99667.72;;;6.26;93.33
51245;BME280;37840;47.562;18.738;2023-01-08T08:51:28;99665.13;;;6.24;94.06
51245;BME280;37840;47.562;18.738;2023-01-08T08:53:54;99665.84;;;6.28;93.72
51245;BME280;37840;47.562;18.738;2023-01-08T08:56:19;99663.13;;;6.29;93.62
51245;BME280;37840;47.562;18.738;2023-01-08T08:58:45;99668.47;;;6.28;93.99
51245;BME280;37840;47.562;18.738;2023-01-08T09:01:11;99661.25;;;6.31;93.46
51245;BME280;37840;47.562;18.738;2023-01-08T09:03:37;99660.81;;;6.39;93.34
51245;BME280;37840;47.562;18.738;2023-01-08T09:06:03;99655.44;;;6.41;93.34
51245;BME280;37840;47.562;18.738;2023-01-08T09:08:29;99654.94;;;6.50;93.58
51245;BME280;37840;47.562;18.738;2023-01-08T09:10:55;99658.84;;;6.59;93.75
51245;BME280;37840;47.562;18.738;2023-01-08T09:13:21;99657.59;;;6.66;92.44
51245;BME280;37840;47.562;18.738;2023-01-08T09:15:47;99657.84;;;6.61;92.66
51245;BME280;37840;47.562;18.738;2023-01-08T09:18:13;99653.72;;;6.71;91.98
51245;BME280;37840;47.562;18.738;2023-01-08T09:20:39;99649.03;;;6.77;92.41
51245;BME280;37840;47.562;18.738;2023-01-08T09:23:05;99651.25;;;6.84;91.74
51245;BME280;37840;47.562;18.738;2023-01-08T09:25:31;99650.81;;;6.92;90.99
51245;BME280;37840;47.562;18.738;2023-01-08T09:27:59;99644.06;;;7.02;90.30
51245;BME280;37840;47.562;18.738;2023-01-08T09:30:26;99635.16;;;7.03;91.62
51245;BME280;37840;47.562;18.738;2023-01-08T09:32:55;99638.22;;;7.11;91.37
51245;BME280;37840;47.562;18.738;2023-01-08T09:35:21;99633.81;;;7.12;89.80
51245;BME280;37840;47.562;18.738;2023-01-08T09:37:51;99632.06;;;7.27;90.65
51245;BME280;37840;47.562;18.738;2023-01-08T09:40:18;99625.34;;;7.35;89.44
51245;BME280;37840;47.562;18.738;2023-01-08T09:42:53;99615.94;;;7.60;88.34
51245;BME280;37840;47.562;18.738;2023-01-08T09:45:29;99616.59;;;7.92;89.33
51245;BME280;37840;47.562;18.738;2023-01-08T09:47:59;99617.41;;;8.22;88.28
51245;BME280;37840;47.562;18.738;2023-01-08T09:50:27;99603.72;;;8.15;85.52
51245;BME280;37840;47.562;18.738;2023-01-08T09:52:55;99615.53;;;8.09;84.77
51245;BME280;37840;47.562;18.738;2023-01-08T09:55:21;99595.56;;;8.18;85.77
51245;BME280;37840;47.562;18.738;2023-01-08T09:57:47;99594.47;;;8.35;85.33
51245;BME280;37840;47.562;18.738;2023-01-08T10:00:16;99594.88;;;8.43;83.79
51245;BME280;37840;47.562;18.738;2023-01-08T10:02:44;99588.44;;;8.47;83.70
51245;BME280;37840;47.562;18.738;2023-01-08T10:05:15;99590.53;;;8.42;84.55
51245;BME280;37840;47.562;18.738;2023-01-08T10:07:42;99572.44;;;8.34;82.97
51245;BME280;37840;47.562;18.738;2023-01-08T10:10:20;99565.50;;;8.19;84.03
51245;BME280;37840;47.562;18.738;2023-01-08T10:12:48;99567.41;;;8.03;84.68
51245;BME280;37840;47.562;18.738;2023-01-08T10:15:16;99567.06;;;7.80;85.26
51245;BME280;37840;47.562;18.738;2023-01-08T10:17:55;99567.44;;;7.74;84.97
51245;BME280;37840;47.562;18.738;2023-01-08T10:20:24;99557.06;;;7.57;85.06
51245;BME280;37840;47.562;18.738;2023-01-08T10:22:51;99558.94;;;7.40;86.60
51245;BME280;37840;47.562;18.738;2023-01-08T10:25:26;99550.91;;;7.42;87.27
51245;BME280;37840;47.562;18.738;2023-01-08T10:27:55;99554.13;;;7.47;87.03
51245;BME280;37840;47.562;18.738;2023-01-08T10:32:54;99535.22;;;7.53;87.25
51245;BME280;37840;47.562;18.738;2023-01-08T10:35:28;99543.84;;;7.57;87.31
51245;BME280;37840;47.562;18.738;2023-01-08T10:37:56;99546.00;;;7.64;85.80
51245;BME280;37840;47.562;18.738;2023-01-08T10:40:40;99532.44;;;7.83;88.83
51245;BME280;37840;47.562;18.738;2023-01-08T10:43:17;99521.16;;;8.08;86.69
51245;BME280;37840;47.562;18.738;2023-01-08T10:48:22;99513.69;;;8.42;84.39
51245;BME280;37840;47.562;18.738;2023-01-08T10:50:50;99516.47;;;8.53;83.55
51245;BME280;37840;47.562;18.738;2023-01-08T10:53:34;99510.25;;;8.54;83.08
51245;BME280;37840;47.562;18.738;2023-01-08T10:56:02;99501.66;;;8.64;84.56
51245;BME280;37840;47.562;18.738;2023-01-08T10:58:28;99506.34;;;8.86;84.95
51245;BME280;37840;47.562;18.738;2023-01-08T11:01:10;99506.59;;;8.95;81.42
51245;BME280;37840;47.562;18.738;2023-01-08T11:03:40;99493.41;;;8.81;83.33
51245;BME280;37840;47.562;18.738;2023-01-08T11:06:18;99491.50;;;8.83;82.45
51245;BME280;37840;47.562;18.738;2023-01-08T11:08:56;99494.38;;;8.80;81.31
51245;BME280;37840;47.562;18.738;2023-01-08T11:11:23;99483.34;;;8.73;83.17
51245;BME280;37840;47.562;18.738;2023-01-08T11:14:03;99478.16;;;8.72;81.36
51245;BME280;37840;47.562;18.738;2023-01-08T11:16:37;99464.47;;;8.78;82.75
51245;BME280;37840;47.562;18.738;2023-01-08T11:19:12;99467.00;;;8.80;83.16
51245;BME280;37840;47.562;18.738;2023-01-08T11:21:39;99461.94;;;8.89;82.90
51245;BME280;37840;47.562;18.738;2023-01-08T11:24:18;99462.34;;;8.96;82.21
51245;BME280;37840;47.562;18.738;2023-01-08T11:35:14;99430.00;;;8.78;81.42
51245;BME280;37840;47.562;18.738;2023-01-08T11:37:55;99428.72;;;8.71;82.83
51245;BME280;37840;47.562;18.738;2023-01-08T11:55:51;99408.56;;;8.68;82.64
51245;BME280;37840;47.562;18.738;2023-01-08T11:58:27;99406.03;;;8.67;83.29
51245;BME280;37840;47.562;18.738;2023-01-08T12:03:48;99386.63;;;8.53;84.16
51245;BME280;37840;47.562;18.738;2023-01-08T12:11:26;99399.34;;;8.48;83.72
51245;BME280;37840;47.562;18.738;2023-01-08T12:22:26;99390.34;;;8.51;85.32
51245;BME280;37840;47.562;18.738;2023-01-08T12:25:34;99390.34;;;8.51;84.13
51245;BME280;37840;47.562;18.738;2023-01-08T12:33:42;99381.75;;;8.60;84.38
51245;BME280;37840;47.562;18.738;2023-01-08T12:36:12;99386.09;;;8.61;83.88
51245;BME280;37840;47.562;18.738;2023-01-08T12:38:42;99382.91;;;8.69;84.26
51245;BME280;37840;47.562;18.738;2023-01-08T12:41:15;99374.53;;;8.75;83.54
51245;BME280;37840;47.562;18.738;2023-01-08T12:44:01;99388.22;;;8.82;83.16
51245;BME280;37840;47.562;18.738;2023-01-08T12:46:43;99389.19;;;8.81;83.03
51245;BME280;37840;47.562;18.738;2023-01-08T12:49:15;99385.97;;;8.75;83.33
51245;BME280;37840;47.562;18.738;2023-01-08T12:52:11;99384.72;;;8.81;83.40
51245;BME280;37840;47.562;18.738;2023-01-08T12:54:49;99382.72;;;8.85;82.85
51245;BME280;37840;47.562;18.738;2023-01-08T13:00:18;99379.50;;;8.92;83.04
51245;BME280;37840;47.562;18.738;2023-01-08T13:03:04;99382.91;;;8.94;83.02
51245;BME280;37840;47.562;18.738;2023-01-08T13:05:36;99366.97;;;8.94;82.72
51245;BME280;37840;47.562;18.738;2023-01-08T13:08:07;99368.59;;;8.97;82.85
51245;BME280;37840;47.562;18.738;2023-01-08T13:10:52;99369.63;;;8.94;83.15
51245;BME280;37840;47.562;18.738;2023-01-08T13:13:30;99364.78;;;9.01;82.52
51245;BME280;37840;47.562;18.738;2023-01-08T13:18:39;99359.13;;;9.06;82.70
51245;BME280;37840;47.562;18.738;2023-01-08T13:21:09;99363.72;;;9.04;82.64
51245;BME280;37840;47.562;18.738;2023-01-08T13:23:36;99359.34;;;9.03;82.00
51245;BME280;37840;47.562;18.738;2023-01-08T13:26:05;99361.66;;;9.07;82.44
51245;BME280;37840;47.562;18.738;2023-01-08T13:33:44;99355.94;;;9.01;82.90
51245;BME280;37840;47.562;18.738;2023-01-08T13:38:42;99355.84;;;9.02;82.64
51245;BME280;37840;47.562;18.738;2023-01-08T13:41:30;99358.91;;;9.09;82.29
51245;BME280;37840;47.562;18.738;2023-01-08T13:44:11;99348.84;;;9.14;82.31
51245;BME280;37840;47.562;18.738;2023-01-08T13:46:40;99352.44;;;9.13;82.34
51245;BME280;37840;47.562;18.738;2023-01-08T13:49:45;99356.66;;;9.15;82.50
51245;BME280;37840;47.562;18.738;2023-01-08T13:57:58;99350.63;;;9.13;82.61
51245;BME280;37840;47.562;18.738;2023-01-08T14:00:33;99353.06;;;9.16;82.50
51245;BME280;37840;47.562;18.738;2023-01-08T14:03:03;99340.09;;;9.25;81.65
51245;BME280;37840;47.562;18.738;2023-01-08T14:05:31;99340.31;;;9.22;81.40
51245;BME280;37840;47.562;18.738;2023-01-08T14:08:01;99347.94;;;9.26;81.39
51245;BME280;37840;47.562;18.738;2023-01-08T14:10:28;99345.91;;;9.30;81.02
51245;BME280;37840;47.562;18.738;2023-01-08T14:13:06;99352.06;;;9.30;81.12
51245;BME280;37840;47.562;18.738;2023-01-08T14:15:33;99346.41;;;9.35;80.91
51245;BME280;37840;47.562;18.738;2023-01-08T14:18:00;99356.81;;;9.38;80.95
51245;BME280;37840;47.562;18.738;2023-01-08T14:20:34;99343.47;;;9.39;80.38
51245;BME280;37840;47.562;18.738;2023-01-08T14:23:02;99352.16;;;9.42;80.12
51245;BME280;37840;47.562;18.738;2023-01-08T14:25:33;99353.84;;;9.43;79.98
51245;BME280;37840;47.562;18.738;2023-01-08T14:28:01;99353.41;;;9.49;79.25
51245;BME280;37840;47.562;18.738;2023-01-08T14:30:29;99346.06;;;9.52;79.53
51245;BME280;37840;47.562;18.738;2023-01-08T14:32:56;99333.25;;;9.46;79.02
51245;BME280;37840;47.562;18.738;2023-01-08T14:35:27;99342.88;;;9.47;79.02